Time;durP1;ratioP1;P1;durP2;ratioP2;P2;SDS_P1;SDS_P2;PMS_P1;PMS_P2;Temp;Humidity;BMP_temperature;BMP_pressure;BME280_temperature;BME280_humidity;BME280_pressure;Samples;Min_cycle;Max_cycle;Signal;HPM_P1;HPM_P2
2021/09/05 00:00:43;;;;;;;11.80;10.00;;;;;;;14.37;80.10;101870.97;5038184;28;20202;-70
2021/09/05 00:03:08;;;;;;;11.67;9.67;;;;;;;14.46;79.88;101865.84;5053394;28;20299;-67
2021/09/05 00:05:34;;;;;;;12.10;10.43;;;;;;;14.66;79.42;101867.84;5058641;28;20165;-67
2021/09/05 00:07:59;;;;;;;14.73;11.30;;;;;;;14.63;79.73;101863.44;5058086;28;20465;-66
2021/09/05 00:10:24;;;;;;;12.77;11.37;;;;;;;14.69;79.16;101867.00;5058195;28;20177;-68
2021/09/05 00:12:50;;;;;;;11.93;10.73;;;;;;;14.26;80.55;101863.00;5058994;28;20466;-68
2021/09/05 00:15:15;;;;;;;17.80;10.43;;;;;;;14.43;79.68;101857.91;5057859;28;20170;-68
2021/09/05 00:17:40;;;;;;;11.47;10.30;;;;;;;14.33;79.70;101856.06;5057909;28;20195;-70
2021/09/05 00:20:07;;;;;;;13.93;12.13;;;;;;;14.40;80.28;101864.91;5058123;28;20193;-70
2021/09/05 00:22:32;;;;;;;11.70;10.27;;;;;;;14.24;80.94;101859.44;5057797;28;20192;-70
2021/09/05 00:24:58;;;;;;;13.70;10.53;;;;;;;14.67;78.67;101866.97;5057707;28;20423;-70
2021/09/05 00:27:23;;;;;;;12.70;10.20;;;;;;;14.41;79.69;101862.28;5058216;28;20543;-70
2021/09/05 00:29:48;;;;;;;12.53;10.43;;;;;;;14.25;80.48;101860.34;5058573;28;20173;-71
2021/09/05 00:32:14;;;;;;;11.37;10.17;;;;;;;13.95;82.10;101866.91;5060320;28;20188;-69
2021/09/05 00:34:39;;;;;;;10.53;9.40;;;;;;;14.13;80.80;101867.19;5059740;28;20177;-70
2021/09/05 00:37:05;;;;;;;12.37;9.63;;;;;;;14.07;81.22;101866.22;5058399;28;20636;-70
2021/09/05 00:39:30;;;;;;;17.00;9.73;;;;;;;14.14;81.16;101866.31;5057779;28;20631;-70
2021/09/05 00:41:55;;;;;;;11.73;9.80;;;;;;;14.14;81.02;101876.81;5058225;28;20162;-70
2021/09/05 00:44:20;;;;;;;11.93;9.93;;;;;;;14.17;80.30;101870.72;5057676;28;20165;-71
2021/09/05 00:46:46;;;;;;;10.07;9.07;;;;;;;14.32;80.21;101872.66;5057477;28;20249;-69
2021/09/05 00:49:11;;;;;;;12.03;9.80;;;;;;;14.00;81.09;101880.97;5058068;28;20249;-69
2021/09/05 00:51:42;;;;;;;10.67;9.67;;;;;;;14.33;79.92;101877.06;5057477;28;20525;-70
2021/09/05 00:54:09;;;;;;;11.80;9.30;;;;;;;14.06;80.36;101875.84;5059298;28;20234;-71
2021/09/05 00:56:36;;;;;;;11.37;9.50;;;;;;;14.05;80.76;101881.94;5061930;28;20825;-70
2021/09/05 00:59:06;;;;;;;12.50;9.20;;;;;;;13.86;81.35;101883.41;5061386;28;20469;-69
2021/09/05 01:01:32;;;;;;;14.63;10.77;;;;;;;14.12;80.11;101886.38;5061728;28;20422;-67
2021/09/05 01:03:57;;;;;;;11.40;9.37;;;;;;;14.20;79.79;101878.63;5062187;28;20404;-67
2021/09/05 01:06:22;;;;;;;10.30;8.90;;;;;;;13.96;80.71;101889.66;5061375;28;20547;-69
2021/09/05 01:08:48;;;;;;;11.60;9.50;;;;;;;13.86;80.76;101895.66;5061500;28;20170;-69
2021/09/05 01:11:14;;;;;;;10.07;8.87;;;;;;;14.04;80.39;101888.03;5061867;28;20507;-70
2021/09/05 01:13:40;;;;;;;10.27;9.13;;;;;;;14.43;78.66;101885.91;5060477;28;20538;-68
2021/09/05 01:16:05;;;;;;;10.53;9.07;;;;;;;14.09;79.53;101886.34;5061114;28;20387;-70
2021/09/05 01:18:31;;;;;;;12.93;9.40;;;;;;;13.94;80.37;101896.66;5060729;28;20170;-69
2021/09/05 01:20:56;;;;;;;12.30;9.50;;;;;;;13.79;81.14;101892.94;5061173;28;20188;-69
2021/09/05 01:23:22;;;;;;;10.13;9.03;;;;;;;13.79;81.05;101903.41;5060979;28;20176;-71
2021/09/05 01:25:47;;;;;;;11.90;9.07;;;;;;;13.74;81.35;101899.84;5060607;28;20546;-71
2021/09/05 01:28:12;;;;;;;10.70;9.07;;;;;;;14.32;78.97;101904.16;5060961;28;20169;-69
2021/09/05 01:30:38;;;;;;;10.93;8.20;;;;;;;13.82;80.83;101907.81;5060961;28;20181;-70
2021/09/05 01:33:04;;;;;;;13.63;9.40;;;;;;;13.97;80.14;101901.91;5061401;28;20494;-70
2021/09/05 01:35:32;;;;;;;12.47;8.70;;;;;;;13.89;79.98;101898.31;5060657;28;20398;-70
2021/09/05 01:37:58;;;;;;;11.57;9.07;;;;;;;13.58;81.28;101905.69;5060729;28;20177;-73
2021/09/05 01:40:23;;;;;;;9.83;8.80;;;;;;;13.32;82.43;101904.38;5061108;28;20720;-70
2021/09/05 01:42:48;;;;;;;12.30;9.30;;;;;;;13.81;80.52;101912.19;5060872;28;20177;-72
2021/09/05 01:45:13;;;;;;;10.13;7.83;;;;;;;13.58;81.46;101911.81;5060817;28;20169;-70
2021/09/05 01:47:39;;;;;;;11.93;9.20;;;;;;;14.05;79.09;101910.78;5060564;28;20317;-69
2021/09/05 01:50:04;;;;;;;11.63;8.97;;;;;;;13.84;80.12;101910.47;5060536;28;20178;-69
2021/09/05 01:52:30;;;;;;;16.57;9.30;;;;;;;13.61;80.76;101900.50;5060582;28;20204;-70
2021/09/05 01:54:55;;;;;;;10.80;8.50;;;;;;;13.54;80.87;101914.38;5060257;28;20169;-70
2021/09/05 01:57:20;;;;;;;9.20;8.30;;;;;;;13.68;80.87;101902.38;5060551;28;20436;-70
2021/09/05 01:59:45;;;;;;;10.10;8.80;;;;;;;13.38;81.32;101914.13;5060797;28;20201;-69
2021/09/05 02:02:11;;;;;;;9.87;8.10;;;;;;;13.64;81.21;101905.81;5060237;28;20177;-70
2021/09/05 02:04:36;;;;;;;9.03;7.80;;;;;;;13.43;81.64;101906.34;5059881;28;20181;-70
2021/09/05 02:07:01;;;;;;;14.00;8.17;;;;;;;13.35;82.20;101911.41;5059805;28;20211;-69
2021/09/05 02:09:27;;;;;;;10.70;8.63;;;;;;;13.31;81.90;101909.59;5060128;28;20256;-71
2021/09/05 02:11:52;;;;;;;9.13;8.00;;;;;;;13.51;81.67;101909.97;5060348;28;20170;-70
2021/09/05 02:14:17;;;;;;;12.23;9.40;;;;;;;13.45;81.54;101916.00;5057673;28;20178;-71
2021/09/05 02:16:43;;;;;;;14.20;8.43;;;;;;;13.48;81.28;101918.66;5039924;28;20257;-72
2021/09/05 02:19:08;;;;;;;8.70;7.80;;;;;;;13.43;80.82;101915.06;5039897;28;20206;-71
2021/09/05 02:21:33;;;;;;;8.90;8.00;;;;;;;13.39;81.53;101923.72;5040421;28;20178;-70
2021/09/05 02:23:58;;;;;;;11.43;8.57;;;;;;;13.42;81.68;101917.66;5040040;28;20178;-70
2021/09/05 02:26:24;;;;;;;9.73;8.67;;;;;;;13.46;81.50;101916.84;5040251;28;20532;-70
2021/09/05 02:28:49;;;;;;;10.70;8.57;;;;;;;13.68;80.19;101909.34;5040706;28;20190;-70
2021/09/05 02:31:14;;;;;;;11.53;8.97;;;;;;;13.61;80.15;101917.13;5040006;28;20177;-70
2021/09/05 02:33:40;;;;;;;10.60;8.57;;;;;;;13.62;79.45;101926.72;5039784;28;20179;-70
2021/09/05 02:36:05;;;;;;;10.47;8.03;;;;;;;13.72;80.01;101917.28;5040393;28;20170;-70
2021/09/05 02:38:31;;;;;;;11.10;9.10;;;;;;;13.40;81.21;101920.25;5039810;28;20200;-71
2021/09/05 02:40:56;;;;;;;9.20;8.00;;;;;;;13.02;82.46;101923.06;5039728;28;20240;-71
2021/09/05 02:43:21;;;;;;;9.80;8.60;;;;;;;13.47;81.16;101918.63;5039968;28;20578;-71
2021/09/05 02:45:47;;;;;;;15.07;8.40;;;;;;;13.69;79.45;101919.84;5039623;28;20170;-71
2021/09/05 02:48:12;;;;;;;11.00;9.07;;;;;;;14.03;78.55;101927.34;5039479;28;20564;-71
2021/09/05 02:50:38;;;;;;;9.37;8.27;;;;;;;13.23;81.78;101922.56;5039807;28;20416;-71
2021/09/05 02:53:03;;;;;;;10.33;8.23;;;;;;;13.47;81.09;101922.13;5039391;28;20594;-71
2021/09/05 02:55:28;;;;;;;10.80;9.20;;;;;;;13.43;80.76;101919.44;5039311;28;20216;-71
2021/09/05 02:57:54;;;;;;;10.93;8.73;;;;;;;13.27;81.65;101916.53;5039843;28;20181;-70
2021/09/05 03:00:19;;;;;;;11.10;8.80;;;;;;;13.27;81.34;101918.25;5039343;28;20202;-70
2021/09/05 03:02:44;;;;;;;11.80;8.27;;;;;;;13.24;81.12;101919.06;5039277;28;20479;-70
2021/09/05 03:05:10;;;;;;;9.83;8.23;;;;;;;13.14;81.14;101925.03;5039635;28;20181;-70
2021/09/05 03:07:35;;;;;;;11.50;8.73;;;;;;;13.08;81.80;101924.91;5038475;28;20586;-70
2021/09/05 03:10:00;;;;;;;11.30;8.50;;;;;;;13.07;81.90;101918.78;5041756;28;20182;-70
2021/09/05 03:12:26;;;;;;;10.63;8.40;;;;;;;12.99;81.76;101923.00;5045906;28;20175;-70
2021/09/05 03:14:51;;;;;;;10.77;8.00;;;;;;;13.12;81.20;101917.16;5043719;28;20205;-70
2021/09/05 03:17:17;;;;;;;8.40;7.50;;;;;;;13.07;81.76;101924.03;5039694;28;20536;-70
2021/09/05 03:19:42;;;;;;;11.63;8.17;;;;;;;13.03;81.46;101922.22;5039736;28;20236;-70
2021/09/05 03:22:07;;;;;;;12.57;8.40;;;;;;;13.32;80.78;101920.09;5039213;28;20547;-70
2021/09/05 03:24:32;;;;;;;11.10;8.80;;;;;;;13.26;80.48;101924.34;5038688;28;20193;-70
2021/09/05 03:26:58;;;;;;;8.70;7.80;;;;;;;13.07;81.48;101921.41;5038543;28;20170;-70
2021/09/05 03:29:23;;;;;;;10.27;8.60;;;;;;;12.82;81.78;101917.44;5038750;28;20221;-71
2021/09/05 03:31:48;;;;;;;9.17;7.47;;;;;;;13.03;81.88;101926.53;5038815;28;20428;-71
2021/09/05 03:34:14;;;;;;;10.10;8.03;;;;;;;12.88;82.00;101921.91;5039185;28;20197;-70
2021/09/05 03:36:39;;;;;;;9.00;7.80;;;;;;;12.76;82.01;101915.59;5038739;28;20217;-69
2021/09/05 03:39:04;;;;;;;10.33;7.73;;;;;;;12.83;82.50;101921.81;5038550;28;20236;-70
2021/09/05 03:41:29;;;;;;;9.40;7.93;;;;;;;12.76;82.32;101919.97;5039264;28;20198;-70
2021/09/05 03:43:55;;;;;;;10.50;8.77;;;;;;;12.73;82.94;101919.88;5038597;28;20446;-69
2021/09/05 03:46:20;;;;;;;11.83;8.07;;;;;;;13.06;81.28;101914.41;5038337;28;20305;-68
2021/09/05 03:48:45;;;;;;;14.20;7.90;;;;;;;12.57;83.19;101923.91;5039218;28;20162;-68
2021/09/05 03:51:11;;;;;;;8.67;7.50;;;;;;;12.68;82.56;101919.78;5038393;28;20205;-68
2021/09/05 03:53:36;;;;;;;9.03;8.07;;;;;;;13.09;80.80;101922.31;5037501;28;20528;-68
2021/09/05 03:56:01;;;;;;;10.00;7.67;;;;;;;13.13;80.45;101907.53;5038973;28;20173;-69
2021/09/05 03:58:27;;;;;;;9.27;7.97;;;;;;;12.79;81.81;101922.63;5038409;28;20166;-68
2021/09/05 04:00:52;;;;;;;10.57;8.00;;;;;;;12.63;82.26;101917.06;5038335;28;20259;-69
2021/09/05 04:03:18;;;;;;;10.37;7.77;;;;;;;12.57;83.11;101919.56;5038735;28;20170;-68
2021/09/05 04:05:44;;;;;;;8.37;7.00;;;;;;;12.74;82.25;101922.50;5038288;28;20177;-67
2021/09/05 04:10:36;;;;;;;10.70;8.27;;;;;;;12.75;82.32;101915.56;5038628;28;20208;-68
2021/09/05 04:13:02;;;;;;;10.80;8.23;;;;;;;12.80;81.57;101917.41;5038401;28;20415;-68
2021/09/05 04:15:28;;;;;;;10.13;7.50;;;;;;;12.61;81.55;101928.34;5038088;28;20411;-68
2021/09/05 04:17:53;;;;;;;10.03;7.60;;;;;;;12.81;80.94;101918.28;5038540;28;20399;-68
2021/09/05 04:20:20;;;;;;;9.37;7.70;;;;;;;12.61;82.05;101923.13;5037978;28;20202;-68
2021/09/05 04:22:46;;;;;;;9.60;7.30;;;;;;;12.63;82.32;101922.28;5038026;28;20178;-68
2021/09/05 04:25:11;;;;;;;10.70;7.60;;;;;;;12.73;81.44;101915.53;5038417;28;20784;-68
2021/09/05 04:27:37;;;;;;;9.77;7.77;;;;;;;12.81;81.01;101918.28;5038029;28;20265;-69
2021/09/05 04:30:03;;;;;;;10.87;6.70;;;;;;;12.62;81.70;101920.56;5041306;28;20170;-69
2021/09/05 04:32:29;;;;;;;10.13;7.90;;;;;;;12.89;80.97;101929.78;5042642;28;20189;-68
2021/09/05 04:34:54;;;;;;;12.27;8.00;;;;;;;12.58;81.63;101925.69;5024712;28;20434;-68
2021/09/05 04:37:19;;;;;;;10.70;7.47;;;;;;;12.54;81.95;101924.75;5042235;28;20174;-68
2021/09/05 04:39:49;;;;;;;10.10;7.50;;;;;;;12.29;81.97;101925.97;5042593;28;20194;-68
2021/09/05 04:42:15;;;;;;;12.90;7.67;;;;;;;12.44;82.21;101928.03;5041997;28;20166;-68
2021/09/05 04:44:40;;;;;;;8.80;7.30;;;;;;;12.39;81.58;101933.13;5041762;28;20433;-68
2021/09/05 04:47:05;;;;;;;7.63;6.73;;;;;;;12.71;80.66;101925.06;5042042;28;20218;-69
2021/09/05 04:49:32;;;;;;;8.03;7.20;;;;;;;13.03;80.01;101929.16;5041830;28;20270;-69
2021/09/05 04:51:57;;;;;;;11.00;8.30;;;;;;;13.42;77.91;101928.13;5041116;28;20194;-69
2021/09/05 04:54:23;;;;;;;9.23;7.10;;;;;;;13.22;77.49;101933.91;5040875;28;20423;-69
2021/09/05 04:56:48;;;;;;;8.37;6.87;;;;;;;13.42;77.43;101930.75;5041768;28;20249;-70
2021/09/05 04:59:13;;;;;;;11.40;7.43;;;;;;;13.00;78.03;101939.59;5042091;28;20236;-68
2021/09/05 05:01:39;;;;;;;9.03;6.87;;;;;;;12.98;79.02;101950.03;5041652;28;20185;-69
2021/09/05 05:04:04;;;;;;;11.60;7.00;;;;;;;12.84;79.10;101947.16;5040718;28;20174;-68
2021/09/05 05:06:29;;;;;;;8.97;7.30;;;;;;;13.49;77.18;101950.97;5042045;28;20179;-68
2021/09/05 05:08:54;;;;;;;9.53;7.60;;;;;;;13.60;75.93;101954.66;5041424;28;20186;-68
2021/09/05 05:11:20;;;;;;;8.10;6.60;;;;;;;13.42;76.64;101950.00;5041273;28;20174;-68
2021/09/05 05:13:45;;;;;;;7.80;7.03;;;;;;;13.52;76.51;101950.13;5041796;28;20490;-68
2021/09/05 05:16:10;;;;;;;11.53;6.60;;;;;;;12.99;78.12;101951.81;5041335;28;20202;-68
2021/09/05 05:18:36;;;;;;;11.47;8.63;;;;;;;12.85;78.95;101951.50;5041285;28;20269;-68
2021/09/05 05:21:01;;;;;;;7.33;6.13;;;;;;;13.35;76.90;101950.69;5040725;28;20290;-68
2021/09/05 05:23:28;;;;;;;8.23;6.40;;;;;;;13.40;76.72;101951.69;5041412;28;20224;-69
2021/09/05 05:25:54;;;;;;;7.90;6.90;;;;;;;13.21;77.86;101965.28;5041295;28;20265;-68
2021/09/05 05:28:19;;;;;;;7.90;6.27;;;;;;;14.01;74.74;101953.53;5040829;28;20452;-68
2021/09/05 05:30:44;;;;;;;6.70;6.00;;;;;;;13.66;75.84;101951.25;5040857;28;20554;-69
2021/09/05 05:33:10;;;;;;;7.27;6.57;;;;;;;14.29;73.54;101951.31;5040757;28;20451;-68
2021/09/05 05:35:35;;;;;;;7.20;6.33;;;;;;;13.86;74.46;101956.81;5041484;28;20201;-68
2021/09/05 05:38:00;;;;;;;7.87;6.60;;;;;;;13.46;76.38;101958.78;5041279;28;20258;-68
2021/09/05 05:40:26;;;;;;;9.30;5.80;;;;;;;13.78;76.09;101955.81;5040789;28;20210;-68
2021/09/05 05:42:52;;;;;;;6.10;5.50;;;;;;;15.26;69.77;101952.50;5041349;28;20509;-70
2021/09/05 05:45:18;;;;;;;6.80;5.00;;;;;;;16.79;63.71;101947.34;5039976;28;20457;-68
2021/09/05 05:47:44;;;;;;;5.30;4.80;;;;;;;16.87;62.42;101950.88;5041218;28;20428;-69
2021/09/05 05:50:09;;;;;;;5.63;5.03;;;;;;;15.75;66.31;101962.53;5044447;28;20174;-70
2021/09/05 05:52:35;;;;;;;5.60;4.97;;;;;;;17.51;61.15;101944.88;5043902;28;20404;-70
2021/09/05 05:55:00;;;;;;;6.83;4.87;;;;;;;18.03;58.65;101952.78;5041040;28;20232;-70
2021/09/05 05:57:26;;;;;;;5.27;4.70;;;;;;;18.83;55.79;101948.09;5041237;28;20253;-69
2021/09/05 05:59:52;;;;;;;6.07;4.70;;;;;;;19.34;54.00;101949.53;5040383;28;20297;-68
2021/09/05 06:02:18;;;;;;;5.43;4.93;;;;;;;17.74;57.91;101961.53;5040445;28;20185;-69
2021/09/05 06:04:43;;;;;;;6.40;4.80;;;;;;;17.29;60.55;101964.16;5040717;28;20427;-69
2021/09/05 06:07:08;;;;;;;6.40;4.80;;;;;;;19.41;54.98;101959.16;5040446;28;20421;-69
2021/09/05 06:09:34;;;;;;;5.23;4.73;;;;;;;19.77;52.83;101959.75;5040443;28;20209;-69
2021/09/05 06:11:59;;;;;;;5.00;4.60;;;;;;;19.40;53.11;101959.19;5040786;28;20261;-69
2021/09/05 06:14:24;;;;;;;6.30;4.90;;;;;;;18.29;56.08;101976.44;5040006;28;20213;-68
2021/09/05 06:16:51;;;;;;;5.03;4.47;;;;;;;17.48;58.63;101976.50;5040232;28;20436;-68
2021/09/05 06:19:16;;;;;;;5.33;4.77;;;;;;;18.82;54.59;101970.09;5040387;28;20560;-69
2021/09/05 06:21:42;;;;;;;6.87;4.53;;;;;;;19.42;53.61;101971.50;5040339;28;20424;-68
2021/09/05 06:24:07;;;;;;;4.97;4.47;;;;;;;21.12;49.04;101961.75;5040342;28;20193;-70
2021/09/05 06:26:32;;;;;;;5.00;4.50;;;;;;;21.52;47.16;101958.44;5040597;28;20184;-70
2021/09/05 06:28:58;;;;;;;5.03;4.60;;;;;;;21.99;45.05;101960.34;5039901;28;20174;-69
2021/09/05 06:31:23;;;;;;;5.27;4.33;;;;;;;20.68;49.34;101960.56;5039857;28;20205;-70
2021/09/05 06:33:48;;;;;;;5.93;4.40;;;;;;;20.19;49.69;101968.19;5040613;28;20265;-68
2021/09/05 06:36:13;;;;;;;6.90;4.70;;;;;;;19.92;50.46;101963.19;5040058;28;20174;-70
2021/09/05 06:38:39;;;;;;;4.37;3.97;;;;;;;18.72;53.60;101971.00;5039908;28;20236;-69
2021/09/05 06:41:04;;;;;;;4.97;4.57;;;;;;;19.93;51.53;101973.75;5039324;28;20430;-69
2021/09/05 06:43:29;;;;;;;5.80;4.70;;;;;;;18.65;53.98;101975.44;5039539;28;20189;-70
2021/09/05 06:45:54;;;;;;;5.00;4.60;;;;;;;21.66;46.06;101962.69;5039614;28;20202;-69
2021/09/05 06:48:20;;;;;;;5.60;4.43;;;;;;;19.35;51.30;101980.38;5039206;28;20253;-70
2021/09/05 06:50:46;;;;;;;4.87;4.37;;;;;;;21.17;47.82;101969.63;5039591;28;20178;-69
2021/09/05 06:53:12;;;;;;;4.30;3.90;;;;;;;20.32;48.88;101976.00;5039034;28;20170;-70
2021/09/05 06:55:37;;;;;;;4.80;4.30;;;;;;;21.48;46.13;101962.03;5040282;28;20405;-69
2021/09/05 06:58:02;;;;;;;6.10;4.90;;;;;;;20.23;49.33;101974.34;5040001;28;20181;-68
2021/09/05 07:00:28;;;;;;;4.63;4.23;;;;;;;21.83;45.13;101965.91;5039439;28;20580;-69
2021/09/05 07:02:53;;;;;;;4.63;4.13;;;;;;;22.48;44.31;101970.00;5040110;28;20189;-71
2021/09/05 07:05:18;;;;;;;4.73;4.33;;;;;;;23.17;41.56;101969.44;5041145;28;20178;-70
2021/09/05 07:07:44;;;;;;;8.27;4.20;;;;;;;24.19;39.45;101969.53;5039642;28;20170;-70
2021/09/05 07:10:09;;;;;;;4.73;4.23;;;;;;;24.12;39.48;101965.28;5039489;28;20519;-70
2021/09/05 07:12:35;;;;;;;5.43;4.63;;;;;;;21.07;45.83;101968.88;5039120;28;20185;-69
2021/09/05 07:15:00;;;;;;;5.50;4.27;;;;;;;20.60;48.11;101980.97;5038951;28;20174;-70
2021/09/05 07:17:25;;;;;;;5.00;4.47;;;;;;;19.48;50.61;101968.84;5039581;28;20524;-70
2021/09/05 07:19:51;;;;;;;6.47;5.03;;;;;;;21.03;46.61;101968.03;5039005;28;20259;-69
2021/09/05 07:22:16;;;;;;;4.40;4.00;;;;;;;22.17;44.69;101969.72;5038876;28;20181;-69
2021/09/05 07:24:41;;;;;;;4.63;4.23;;;;;;;23.81;40.53;101961.63;5038107;28;20540;-69
2021/09/05 07:27:07;;;;;;;5.73;4.40;;;;;;;23.47;40.85;101959.81;5038885;28;20185;-70
2021/09/05 07:29:32;;;;;;;4.40;4.00;;;;;;;24.17;38.67;101958.91;5038750;28;20178;-70
2021/09/05 07:31:57;;;;;;;4.70;4.30;;;;;;;23.32;40.89;101973.53;5039073;28;20184;-69
2021/09/05 07:34:22;;;;;;;5.27;4.80;;;;;;;24.54;38.25;101972.97;5038483;28;20444;-69
2021/09/05 07:36:48;;;;;;;4.73;4.23;;;;;;;25.34;37.12;101967.00;5038667;28;20174;-69
2021/09/05 07:39:13;;;;;;;5.60;4.80;;;;;;;25.86;36.12;101965.22;5039031;28;20198;-70
2021/09/05 07:41:38;;;;;;;5.10;4.67;;;;;;;22.75;41.02;101975.66;5038656;28;20228;-70
2021/09/05 07:44:04;;;;;;;4.60;4.20;;;;;;;24.45;38.43;101974.13;5038397;28;20174;-70
2021/09/05 07:46:29;;;;;;;4.67;4.27;;;;;;;22.71;41.90;101974.84;5038759;28;20233;-69
2021/09/05 07:48:55;;;;;;;4.87;4.17;;;;;;;23.41;41.21;101973.31;5038441;28;20174;-70
2021/09/05 07:51:24;;;;;;;5.13;4.70;;;;;;;25.46;37.04;101965.72;5038362;28;20244;-69
2021/09/05 07:53:52;;;;;;;5.00;4.60;;;;;;;26.69;34.33;101957.78;5038206;28;20212;-71
2021/09/05 07:56:18;;;;;;;7.00;4.30;;;;;;;26.64;35.08;101965.09;5038425;28;20818;-70
2021/09/05 07:58:44;;;;;;;7.90;4.73;;;;;;;25.96;35.83;101975.59;5038691;28;20401;-69
2021/09/05 08:01:09;;;;;;;4.87;4.37;;;;;;;22.67;41.92;101982.94;5038280;28;20241;-70
2021/09/05 08:03:38;;;;;;;5.03;4.53;;;;;;;25.94;36.20;101975.66;5036426;28;20167;-70
2021/09/05 08:06:03;;;;;;;5.27;4.80;;;;;;;27.77;33.38;101964.13;5038130;28;20162;-70
2021/09/05 08:08:29;;;;;;;8.33;5.57;;;;;;;26.91;34.13;101967.66;5038350;28;20708;-70
2021/09/05 08:10:54;;;;;;;5.30;4.73;;;;;;;22.14;42.61;101983.94;5038594;28;20174;-70
2021/09/05 08:13:20;;;;;;;5.23;4.73;;;;;;;24.99;37.45;101984.97;5038788;28;20219;-70
2021/09/05 08:15:45;;;;;;;5.23;4.60;;;;;;;26.00;35.61;101972.75;5038595;28;20196;-69
2021/09/05 08:18:10;;;;;;;5.00;4.50;;;;;;;26.35;34.55;101975.13;5038385;28;20182;-70
2021/09/05 08:20:36;;;;;;;4.63;4.23;;;;;;;25.72;36.06;101978.19;5038698;28;20198;-70
2021/09/05 08:23:01;;;;;;;5.80;4.50;;;;;;;23.44;39.61;101989.19;5038459;28;20243;-71
2021/09/05 08:25:26;;;;;;;5.33;4.43;;;;;;;23.59;39.53;101987.94;5038607;28;20170;-71
2021/09/05 08:27:52;;;;;;;5.37;4.87;;;;;;;23.65;39.30;101989.56;5038699;28;20249;-70
2021/09/05 08:30:17;;;;;;;4.80;4.40;;;;;;;22.88;41.15;101994.91;5038576;28;20259;-70
2021/09/05 08:32:42;;;;;;;4.90;4.40;;;;;;;23.05;39.75;101999.81;5038273;28;20174;-70
2021/09/05 08:35:08;;;;;;;5.17;4.60;;;;;;;22.33;41.98;102002.19;5038436;28;20181;-70
2021/09/05 08:37:33;;;;;;;5.33;4.83;;;;;;;22.65;41.28;101998.00;5038277;28;20185;-70
2021/09/05 08:39:59;;;;;;;6.07;5.20;;;;;;;23.19;39.96;101994.22;5037576;28;20210;-69
2021/09/05 08:42:24;;;;;;;6.13;4.70;;;;;;;21.67;43.12;102001.59;5038845;28;20265;-70
2021/09/05 08:44:49;;;;;;;5.90;4.97;;;;;;;24.39;37.76;101995.59;5037246;28;20257;-70
2021/09/05 08:47:15;;;;;;;5.43;4.90;;;;;;;25.74;36.21;101995.03;5038357;28;20327;-70
2021/09/05 08:49:41;;;;;;;4.93;4.43;;;;;;;22.49;41.72;102003.66;5037768;28;20179;-68
2021/09/05 08:52:07;;;;;;;4.90;4.50;;;;;;;21.93;43.05;102008.22;5037573;28;20198;-70
2021/09/05 08:54:32;;;;;;;5.70;5.10;;;;;;;23.02;40.84;102002.56;5037891;28;20877;-70
2021/09/05 08:56:59;;;;;;;5.10;4.60;;;;;;;24.11;39.41;102003.50;5038560;28;20178;-70
2021/09/05 08:59:24;;;;;;;5.43;4.90;;;;;;;26.37;35.35;102008.88;5037889;28;20206;-70
2021/09/05 09:01:54;;;;;;;5.00;4.50;;;;;;;25.91;36.68;102012.28;5038652;28;20470;-70
2021/09/05 09:04:20;;;;;;;5.23;4.73;;;;;;;25.41;37.01;102013.94;5038278;28;20166;-70
2021/09/05 09:06:45;;;;;;;5.27;4.60;;;;;;;22.50;41.70;102017.81;5037827;28;20478;-70
2021/09/05 09:09:11;;;;;;;7.03;5.20;;;;;;;23.46;40.25;102016.66;5038616;28;20202;-73
2021/09/05 09:11:56;;;;;;;5.50;4.90;;;;;;;23.79;39.97;102010.53;5039066;28;20167;-70
2021/09/05 09:14:42;;;;;;;5.10;4.70;;;;;;;22.60;42.51;102015.88;5058766;28;20178;-69
2021/09/05 09:17:11;;;;;;;5.63;4.87;;;;;;;25.55;36.49;102011.69;5063010;28;20451;-69
2021/09/05 09:19:37;;;;;;;5.30;4.80;;;;;;;26.88;34.16;102000.78;5063313;28;20707;-70
2021/09/05 09:22:05;;;;;;;5.47;4.90;;;;;;;25.41;37.91;102002.38;5062154;28;20434;-70
2021/09/05 09:24:41;;;;;;;6.10;4.80;;;;;;;24.93;38.44;102007.41;5063317;28;20166;-72
2021/09/05 09:27:07;;;;;;;5.10;4.60;;;;;;;27.14;34.85;101997.03;5062617;28;20420;-71
2021/09/05 09:29:34;;;;;;;4.80;4.40;;;;;;;26.03;35.74;102003.88;5062171;28;20857;-69
2021/09/05 09:32:08;;;;;;;5.10;4.70;;;;;;;23.79;39.59;102016.72;5062161;28;20496;-70
2021/09/05 09:34:46;;;;;;;4.90;4.40;;;;;;;25.77;36.72;102002.94;5062395;28;20407;-70
2021/09/05 09:37:13;;;;;;;5.03;4.63;;;;;;;27.54;34.31;102000.81;5062759;28;20498;-70
2021/09/05 09:39:43;;;;;;;5.10;4.70;;;;;;;24.09;39.09;102006.22;5062826;28;20525;-70
2021/09/05 09:42:08;;;;;;;5.80;5.30;;;;;;;23.43;40.98;102014.03;5062487;28;20428;-70
2021/09/05 09:44:34;;;;;;;5.07;4.67;;;;;;;25.96;37.12;101999.66;5062114;28;20431;-70
2021/09/05 09:47:09;;;;;;;5.60;5.10;;;;;;;26.72;34.92;101993.34;5061605;28;20225;-69
2021/09/05 09:49:47;;;;;;;5.10;4.70;;;;;;;25.88;35.38;101999.91;5061625;28;20178;-70
2021/09/05 09:52:13;;;;;;;6.60;4.67;;;;;;;27.52;33.75;102002.69;5061834;28;20753;-70
2021/09/05 09:54:39;;;;;;;7.90;4.87;;;;;;;28.20;31.48;101991.75;5061831;28;20903;-71
2021/09/05 09:57:05;;;;;;;4.97;4.57;;;;;;;26.70;34.19;101996.97;5061268;28;20429;-70
2021/09/05 09:59:30;;;;;;;5.20;4.70;;;;;;;25.75;36.75;102002.13;5061283;28;20539;-70
2021/09/05 10:01:55;;;;;;;5.60;5.10;;;;;;;26.17;36.16;101993.56;5061085;28;20220;-69
2021/09/05 10:04:21;;;;;;;6.10;4.93;;;;;;;26.33;36.48;101988.53;5061869;28;20170;-69
2021/09/05 10:06:46;;;;;;;5.13;4.73;;;;;;;28.10;32.57;101981.50;5062158;28;20569;-70
2021/09/05 10:09:13;;;;;;;7.67;5.13;;;;;;;25.11;37.24;101997.94;5060356;28;20180;-70
2021/09/05 10:11:39;;;;;;;5.57;5.07;;;;;;;22.69;42.77;102002.38;5060915;28;20590;-69
2021/09/05 10:14:05;;;;;;;5.00;4.50;;;;;;;25.34;38.03;101997.25;5060481;28;20436;-69
2021/09/05 10:16:30;;;;;;;5.83;5.33;;;;;;;23.83;40.76;102002.41;5061681;28;20246;-69
2021/09/05 10:19:05;;;;;;;5.30;4.87;;;;;;;26.56;36.08;101990.34;5060697;28;20182;-69
2021/09/05 10:21:34;;;;;;;5.80;5.30;;;;;;;26.81;35.86;101988.56;5059288;28;20184;-68
2021/09/05 10:23:59;;;;;;;5.53;5.03;;;;;;;27.00;34.60;101978.00;5059740;28;20411;-69
2021/09/05 10:26:25;;;;;;;5.60;5.00;;;;;;;25.46;37.25;101995.97;5059153;28;20512;-69
2021/09/05 10:28:53;;;;;;;5.97;5.37;;;;;;;27.05;35.19;101981.38;5059627;28;20260;-70
2021/09/05 10:31:41;;;;;;;6.63;5.73;;;;;;;26.01;36.99;101981.66;5059642;28;20420;-68
2021/09/05 10:34:31;;;;;;;7.30;5.80;;;;;;;27.22;34.22;101988.72;5056486;28;20695;-70
2021/09/05 10:37:13;;;;;;;6.50;5.90;;;;;;;25.91;37.27;101985.56;5059634;28;20686;-69
2021/09/05 10:40:07;;;;;;;5.50;5.00;;;;;;;24.41;39.68;101993.78;5059609;28;20467;-67
2021/09/05 10:42:33;;;;;;;5.93;5.40;;;;;;;23.28;42.31;101994.00;5059694;28;20416;-69
2021/09/05 10:45:04;;;;;;;6.43;5.50;;;;;;;24.78;40.00;101984.72;5058471;28;20432;-69
2021/09/05 10:47:44;;;;;;;6.33;5.20;;;;;;;26.77;36.60;101976.25;5058333;28;20221;-68
2021/09/05 10:50:33;;;;;;;6.00;5.50;;;;;;;27.09;35.30;101974.06;5058810;28;20408;-68
2021/09/05 10:53:21;;;;;;;6.57;5.93;;;;;;;26.71;35.42;101969.31;5059294;28;20428;-69
2021/09/05 10:56:07;;;;;;;7.20;5.57;;;;;;;24.09;40.86;101979.56;5059074;28;20430;-69
2021/09/05 10:58:48;;;;;;;6.73;6.17;;;;;;;25.80;38.33;101970.78;5059404;28;20412;-69
2021/09/05 11:01:35;;;;;;;6.70;6.10;;;;;;;26.38;37.13;101975.00;5059300;28;20463;-68
2021/09/05 11:04:12;;;;;;;6.43;5.80;;;;;;;23.48;40.99;101980.22;5060173;28;20496;-69
2021/09/05 11:06:40;;;;;;;6.77;6.17;;;;;;;23.73;41.95;101986.72;5061031;28;20826;-70
2021/09/05 11:09:17;;;;;;;6.20;5.37;;;;;;;23.03;42.93;101983.91;5059501;28;20649;-69
2021/09/05 11:12:08;;;;;;;7.50;6.23;;;;;;;24.77;40.09;101985.66;5059337;28;20422;-70
2021/09/05 11:17:08;;;;;;;6.80;6.20;;;;;;;22.80;43.21;101989.75;5059201;28;20412;-69
2021/09/05 11:19:36;;;;;;;7.50;6.43;;;;;;;24.65;39.62;101981.56;5058821;28;20562;-69
2021/09/05 11:22:05;;;;;;;6.50;5.90;;;;;;;23.41;41.00;101989.28;5058702;28;20802;-69
2021/09/05 11:24:31;;;;;;;7.23;6.50;;;;;;;22.84;43.18;101982.53;5058680;28;20463;-70